createdAt,value
2018-02-15T00:00:05.508Z,-1.94
2018-02-15T00:01:06.676Z,-2.00
2018-02-15T00:02:06.318Z,-2.00
2018-02-15T00:03:06.174Z,-2.00
2018-02-15T00:04:05.514Z,-2.00
2018-02-15T00:05:06.163Z,-2.00
2018-02-15T00:06:06.110Z,-2.00
2018-02-15T00:07:06.517Z,-2.00
2018-02-15T00:08:06.150Z,-2.00
2018-02-15T00:09:05.617Z,-2.00
2018-02-15T00:10:05.840Z,-2.06
2018-02-15T00:11:10.636Z,-2.06
2018-02-15T00:12:06.183Z,-2.06
2018-02-15T00:13:06.480Z,-2.06
2018-02-15T00:14:05.949Z,-2.06
2018-02-15T00:15:06.020Z,-2.00
2018-02-15T00:16:05.751Z,-2.06
2018-02-15T00:17:06.325Z,-2.00
2018-02-15T00:18:06.220Z,-2.00
2018-02-15T00:19:05.754Z,-2.00
2018-02-15T00:20:06.223Z,-2.06
2018-02-15T00:21:06.078Z,-2.06
2018-02-15T00:22:10.754Z,-2.06
2018-02-15T00:23:06.395Z,-2.06
2018-02-15T00:24:06.410Z,-2.06
2018-02-15T00:25:05.665Z,-2.06
2018-02-15T00:26:07.122Z,-2.06
2018-02-15T00:27:06.395Z,-2.06
2018-02-15T00:28:05.921Z,-2.06
2018-02-15T00:29:05.786Z,-2.06
2018-02-15T00:30:05.742Z,-2.00
2018-02-15T00:31:05.763Z,-2.00
2018-02-15T00:32:05.993Z,-2.06
2018-02-15T00:33:05.833Z,-2.00
2018-02-15T00:34:05.595Z,-2.00
2018-02-15T00:35:06.160Z,-2.06
2018-02-15T00:36:05.913Z,-2.06
2018-02-15T00:37:11.415Z,-2.06
2018-02-15T00:38:05.864Z,-2.06
2018-02-15T00:39:06.243Z,-2.06
2018-02-15T00:40:05.758Z,-2.06
2018-02-15T00:41:10.847Z,-2.06
2018-02-15T00:42:05.877Z,-2.06
2018-02-15T00:43:06.574Z,-2.06
2018-02-15T00:44:05.959Z,-2.06
2018-02-15T00:45:06.324Z,-2.06
2018-02-15T00:46:05.841Z,-2.06
2018-02-15T00:47:05.945Z,-2.06
2018-02-15T00:48:05.997Z,-2.06
2018-02-15T00:49:06.000Z,-2.06
2018-02-15T00:50:06.418Z,-2.06
2018-02-15T00:51:05.998Z,-2.06
2018-02-15T00:52:05.693Z,-2.00
2018-02-15T00:53:05.826Z,-2.06
2018-02-15T00:54:05.834Z,-2.06
2018-02-15T00:55:05.678Z,-2.06
2018-02-15T00:56:06.307Z,-2.06
2018-02-15T00:57:05.992Z,-2.12
2018-02-15T00:58:05.832Z,-2.06
2018-02-15T00:59:06.242Z,-2.06
2018-02-15T01:00:06.175Z,-2.12
2018-02-15T01:01:06.082Z,-2.12
2018-02-15T01:02:06.180Z,-2.12
2018-02-15T01:03:06.309Z,-2.12
2018-02-15T01:04:06.485Z,-2.19
2018-02-15T01:05:06.488Z,-2.19
2018-02-15T01:06:06.380Z,-2.19
2018-02-15T01:07:10.609Z,-2.19
2018-02-15T01:08:05.838Z,-2.25
2018-02-15T01:09:05.532Z,-2.25
2018-02-15T01:10:06.423Z,-2.25
2018-02-15T01:11:05.680Z,-2.25
2018-02-15T01:12:11.181Z,-2.31
2018-02-15T01:13:05.847Z,-2.31
2018-02-15T01:14:05.911Z,-2.31
2018-02-15T01:15:06.176Z,-2.31
2018-02-15T01:16:06.062Z,-2.31
2018-02-15T01:17:05.830Z,-2.31
2018-02-15T01:18:05.770Z,-2.31
2018-02-15T01:19:06.548Z,-2.31
2018-02-15T01:20:05.694Z,-2.31
2018-02-15T01:21:05.588Z,-2.38
2018-02-15T01:22:06.391Z,-2.38
2018-02-15T01:23:05.916Z,-2.38
2018-02-15T01:24:06.552Z,-2.38
2018-02-15T01:25:05.916Z,-2.38
2018-02-15T01:26:06.102Z,-2.44
2018-02-15T01:27:06.671Z,-2.44
2018-02-15T01:28:06.008Z,-2.44
2018-02-15T01:29:06.473Z,-2.44
2018-02-15T01:30:11.110Z,-2.44
2018-02-15T01:31:05.591Z,-2.44
2018-02-15T01:32:06.187Z,-2.44
2018-02-15T01:33:05.904Z,-2.50
2018-02-15T01:34:05.751Z,-2.50
2018-02-15T01:35:05.674Z,-2.50
2018-02-15T01:36:05.767Z,-2.50
2018-02-15T01:37:06.254Z,-2.50
2018-02-15T01:38:05.593Z,-2.50
2018-02-15T01:39:06.157Z,-2.50
2018-02-15T01:40:06.221Z,-2.56
2018-02-15T01:41:06.397Z,-2.56
2018-02-15T01:42:05.668Z,-2.56
2018-02-15T01:43:06.642Z,-2.62
2018-02-15T01:44:06.462Z,-2.62
2018-02-15T01:45:06.804Z,-2.62
2018-02-15T01:46:05.823Z,-2.69
2018-02-15T01:47:06.242Z,-2.69
2018-02-15T01:48:06.191Z,-2.69
2018-02-15T01:49:11.160Z,-2.69
2018-02-15T01:50:05.867Z,-2.69
2018-02-15T01:51:06.478Z,-2.75
2018-02-15T01:52:06.121Z,-2.75
2018-02-15T01:53:05.920Z,-2.75
2018-02-15T01:54:06.014Z,-2.75
2018-02-15T01:55:06.396Z,-2.81
2018-02-15T01:56:06.468Z,-2.81
2018-02-15T01:57:06.091Z,-2.81
2018-02-15T01:58:06.071Z,-2.81
2018-02-15T01:59:05.711Z,-2.81
2018-02-15T02:00:05.839Z,-2.81
2018-02-15T02:01:05.859Z,-2.88
2018-02-15T02:02:06.165Z,-2.88
2018-02-15T02:03:06.157Z,-2.88
2018-02-15T02:04:05.852Z,-2.88
2018-02-15T02:05:06.004Z,-2.94
2018-02-15T02:06:05.833Z,-2.94
2018-02-15T02:07:06.165Z,-2.94
2018-02-15T02:08:06.046Z,-2.94
2018-02-15T02:09:05.517Z,-2.94
2018-02-15T02:10:05.908Z,-2.94
2018-02-15T02:11:05.995Z,-3.00
2018-02-15T02:12:05.838Z,-3.00
2018-02-15T02:13:06.399Z,-3.00
2018-02-15T02:14:05.677Z,-3.00
2018-02-15T02:15:06.403Z,-3.00
2018-02-15T02:16:06.021Z,-3.00
2018-02-15T02:17:06.152Z,-3.00
2018-02-15T02:18:05.870Z,-3.00
2018-02-15T02:19:06.477Z,-3.06
2018-02-15T02:20:05.851Z,-3.06
2018-02-15T02:21:05.682Z,-3.06
2018-02-15T02:22:06.244Z,-3.06
2018-02-15T02:23:05.918Z,-3.06
2018-02-15T02:24:06.001Z,-3.12
2018-02-15T02:25:05.918Z,-3.12
2018-02-15T02:26:05.522Z,-3.19
2018-02-15T02:27:06.258Z,-3.12
2018-02-15T02:28:06.010Z,-3.06
2018-02-15T02:29:06.076Z,-3.12
2018-02-15T02:30:06.107Z,-3.12
2018-02-15T02:31:05.909Z,-3.12
2018-02-15T02:32:05.572Z,-3.19
2018-02-15T02:33:05.843Z,-3.19
2018-02-15T02:34:06.257Z,-3.19
2018-02-15T02:35:06.174Z,-3.25
2018-02-15T02:36:05.623Z,-3.25
2018-02-15T02:37:06.011Z,-3.25
2018-02-15T02:38:05.680Z,-3.25
2018-02-15T02:39:06.330Z,-3.25
2018-02-15T02:40:05.746Z,-3.25
2018-02-15T02:41:05.844Z,-3.31
2018-02-15T02:42:05.916Z,-3.31
2018-02-15T02:43:05.856Z,-3.25
2018-02-15T02:44:05.678Z,-3.31
2018-02-15T02:45:05.689Z,-3.25
2018-02-15T02:46:11.251Z,-3.31
2018-02-15T02:47:06.505Z,-3.38
2018-02-15T02:48:06.079Z,-3.38
2018-02-15T02:49:05.780Z,-3.38
2018-02-15T02:50:10.705Z,-3.44
2018-02-15T02:51:06.240Z,-3.44
2018-02-15T02:52:05.522Z,-3.44
2018-02-15T02:53:05.929Z,-3.44
2018-02-15T02:54:06.397Z,-3.44
2018-02-15T02:55:05.935Z,-3.44
2018-02-15T02:56:10.584Z,-3.44
2018-02-15T02:57:06.563Z,-3.50
2018-02-15T02:58:05.995Z,-3.50
2018-02-15T02:59:06.652Z,-3.50
2018-02-15T03:00:06.325Z,-3.50
2018-02-15T03:01:06.003Z,-3.50
2018-02-15T03:02:05.803Z,-3.50
2018-02-15T03:03:06.370Z,-3.50
2018-02-15T03:04:05.756Z,-3.56
2018-02-15T03:05:06.404Z,-3.56
2018-02-15T03:06:06.287Z,-3.56
2018-02-15T03:07:06.156Z,-3.50
2018-02-15T03:08:06.247Z,-3.50
2018-02-15T03:09:06.333Z,-3.50
2018-02-15T03:10:10.841Z,-3.50
2018-02-15T03:11:06.522Z,-3.50
2018-02-15T03:12:06.097Z,-3.50
2018-02-15T03:13:06.316Z,-3.50
2018-02-15T03:14:06.180Z,-3.50
2018-02-15T03:15:06.483Z,-3.50
2018-02-15T03:16:06.423Z,-3.44
2018-02-15T03:17:05.752Z,-3.50
2018-02-15T03:18:06.689Z,-3.50
2018-02-15T03:19:05.915Z,-3.50
2018-02-15T03:20:10.935Z,-3.50
2018-02-15T03:21:06.495Z,-3.50
2018-02-15T03:22:06.882Z,-3.50
2018-02-15T03:23:05.921Z,-3.50
2018-02-15T03:24:05.914Z,-3.44
2018-02-15T03:25:11.493Z,-3.50
2018-02-15T03:26:06.164Z,-3.50
2018-02-15T03:27:06.317Z,-3.50
2018-02-15T03:28:06.179Z,-3.44
2018-02-15T03:29:06.318Z,-3.44
2018-02-15T03:30:06.074Z,-3.44
2018-02-15T03:31:05.600Z,-3.44
2018-02-15T03:32:05.843Z,-3.44
2018-02-15T03:33:06.402Z,-3.50
2018-02-15T03:34:05.853Z,-3.50
2018-02-15T03:35:05.678Z,-3.50
2018-02-15T03:36:05.780Z,-3.44
2018-02-15T03:37:06.722Z,-3.50
2018-02-15T03:38:06.244Z,-3.44
2018-02-15T03:39:06.481Z,-3.44
2018-02-15T03:40:05.570Z,-3.44
2018-02-15T03:41:06.489Z,-3.44
2018-02-15T03:42:05.521Z,-3.44
2018-02-15T03:43:06.215Z,-3.44
2018-02-15T03:44:06.000Z,-3.44
2018-02-15T03:45:10.628Z,-3.44
2018-02-15T03:46:06.002Z,-3.44
2018-02-15T03:47:05.911Z,-3.38
2018-02-15T03:48:05.600Z,-3.38
2018-02-15T03:49:06.251Z,-3.38
2018-02-15T03:50:05.623Z,-3.38
2018-02-15T03:51:06.557Z,-3.38
2018-02-15T03:52:05.605Z,-3.38
2018-02-15T03:53:06.492Z,-3.38
2018-02-15T03:54:06.075Z,-3.31
2018-02-15T03:55:06.002Z,-3.38
2018-02-15T03:56:06.239Z,-3.38
2018-02-15T03:57:06.156Z,-3.38
2018-02-15T03:58:06.107Z,-3.38
2018-02-15T03:59:06.494Z,-3.38
2018-02-15T04:00:05.784Z,-3.31
2018-02-15T04:01:06.206Z,-3.31
2018-02-15T04:02:05.856Z,-3.31
2018-02-15T04:03:06.080Z,-3.31
2018-02-15T04:04:06.474Z,-3.31
2018-02-15T04:05:06.231Z,-3.25
2018-02-15T04:06:05.946Z,-3.25
2018-02-15T04:07:05.841Z,-3.19
2018-02-15T04:08:05.759Z,-3.19
2018-02-15T04:09:06.573Z,-3.19
2018-02-15T04:10:05.520Z,-3.19
2018-02-15T04:11:11.465Z,-3.19
2018-02-15T04:12:05.598Z,-3.19
2018-02-15T04:13:07.527Z,-3.19
2018-02-15T04:14:06.012Z,-3.12
2018-02-15T04:15:06.320Z,-3.12
2018-02-15T04:16:06.400Z,-3.12
2018-02-15T04:17:06.321Z,-3.12
2018-02-15T04:18:06.250Z,-3.12
2018-02-15T04:19:06.397Z,-3.12
2018-02-15T04:20:06.840Z,-3.12
2018-02-15T04:21:05.835Z,-3.12
2018-02-15T04:22:05.599Z,-3.12
2018-02-15T04:23:06.697Z,-3.06
2018-02-15T04:24:06.321Z,-3.06
2018-02-15T04:25:06.173Z,-3.06
2018-02-15T04:26:05.935Z,-3.00
2018-02-15T04:27:11.155Z,-3.00
2018-02-15T04:28:06.474Z,-3.00
2018-02-15T04:29:05.919Z,-3.06
2018-02-15T04:30:10.461Z,-3.00
2018-02-15T04:31:06.864Z,-3.00
2018-02-15T04:32:06.641Z,-3.00
2018-02-15T04:33:10.767Z,-3.00
2018-02-15T04:34:06.393Z,-3.00
2018-02-15T04:35:06.092Z,-2.94
2018-02-15T04:36:06.241Z,-3.00
2018-02-15T04:37:05.852Z,-3.00
2018-02-15T04:38:05.920Z,-2.94
2018-02-15T04:39:06.009Z,-2.94
2018-02-15T04:40:06.069Z,-2.94
2018-02-15T04:41:05.688Z,-2.88
2018-02-15T04:42:05.837Z,-2.88
2018-02-15T04:43:05.759Z,-2.88
2018-02-15T04:44:06.077Z,-2.88
2018-02-15T04:45:05.754Z,-2.81
2018-02-15T04:46:06.034Z,-2.75
2018-02-15T04:47:05.923Z,-2.75
2018-02-15T04:48:06.477Z,-2.75
2018-02-15T04:49:06.406Z,-2.75
2018-02-15T04:50:05.838Z,-2.75
2018-02-15T04:51:05.570Z,-2.81
2018-02-15T04:52:06.402Z,-2.81
2018-02-15T04:53:06.096Z,-2.81
2018-02-15T04:54:05.431Z,-2.75
2018-02-15T04:55:05.591Z,-2.75
2018-02-15T04:56:05.514Z,-2.69
2018-02-15T04:57:06.320Z,-2.69
2018-02-15T04:58:05.769Z,-2.69
2018-02-15T04:59:06.235Z,-2.69
2018-02-15T05:00:06.166Z,-2.69
2018-02-15T05:01:05.931Z,-2.69
2018-02-15T05:02:06.024Z,-2.62
2018-02-15T05:03:06.429Z,-2.62
2018-02-15T05:04:11.126Z,-2.62
2018-02-15T05:05:05.521Z,-2.62
2018-02-15T05:06:11.374Z,-2.56
2018-02-15T05:07:06.416Z,-2.62
2018-02-15T05:08:05.926Z,-2.56
2018-02-15T05:09:05.851Z,-2.56
2018-02-15T05:10:05.917Z,-2.56
2018-02-15T05:11:06.329Z,-2.56
2018-02-15T05:12:06.075Z,-2.56
2018-02-15T05:13:11.084Z,-2.56
2018-02-15T05:14:06.554Z,-2.56
2018-02-15T05:15:05.835Z,-2.50
2018-02-15T05:16:05.697Z,-2.50
2018-02-15T05:17:06.077Z,-2.44
2018-02-15T05:18:10.623Z,-2.44
2018-02-15T05:19:06.257Z,-2.44
2018-02-15T05:20:06.078Z,-2.44
2018-02-15T05:21:05.745Z,-2.44
2018-02-15T05:22:05.609Z,-2.44
2018-02-15T05:23:06.157Z,-2.38
2018-02-15T05:24:05.602Z,-2.38
2018-02-15T05:25:06.829Z,-2.38
2018-02-15T05:26:06.289Z,-2.38
2018-02-15T05:27:05.686Z,-2.38
2018-02-15T05:28:05.833Z,-2.31
2018-02-15T05:29:06.160Z,-2.31
2018-02-15T05:30:06.195Z,-2.31
2018-02-15T05:31:05.597Z,-2.31
2018-02-15T05:32:05.601Z,-2.31
2018-02-15T05:33:05.705Z,-2.31
2018-02-15T05:34:05.989Z,-2.25
2018-02-15T05:35:11.487Z,-2.19
2018-02-15T05:36:06.015Z,-2.19
2018-02-15T05:37:06.079Z,-2.19
2018-02-15T05:38:05.756Z,-2.19
2018-02-15T05:39:10.899Z,-2.12
2018-02-15T05:40:11.026Z,-2.12
2018-02-15T05:41:05.610Z,-2.12
2018-02-15T05:42:05.774Z,-2.12
2018-02-15T05:43:05.855Z,-2.12
2018-02-15T05:44:06.217Z,-2.12
2018-02-15T05:45:06.097Z,-2.06
2018-02-15T05:46:05.771Z,-2.06
2018-02-15T05:47:11.805Z,-2.06
2018-02-15T05:48:06.401Z,-2.06
2018-02-15T05:49:06.082Z,-2.06
2018-02-15T05:50:06.163Z,-2.00
2018-02-15T05:51:05.759Z,-2.00
2018-02-15T05:52:05.835Z,-2.00
2018-02-15T05:53:06.475Z,-2.00
2018-02-15T05:54:06.096Z,-1.94
2018-02-15T05:55:07.195Z,-1.88
2018-02-15T05:56:06.078Z,-1.88
2018-02-15T05:57:06.396Z,-1.88
2018-02-15T05:58:06.079Z,-1.81
2018-02-15T05:59:06.123Z,-1.81
2018-02-15T06:00:11.164Z,-1.81
2018-02-15T06:01:05.605Z,-1.81
2018-02-15T06:02:05.516Z,-1.75
2018-02-15T06:03:05.686Z,-1.75
2018-02-15T06:04:06.004Z,-1.75
2018-02-15T06:05:06.244Z,-1.75
2018-02-15T06:06:05.848Z,-1.75
2018-02-15T06:07:05.519Z,-1.75
2018-02-15T06:08:05.592Z,-1.75
2018-02-15T06:09:05.517Z,-1.75
2018-02-15T06:10:11.273Z,-1.75
2018-02-15T06:11:05.683Z,-1.75
2018-02-15T06:12:05.682Z,-1.75
2018-02-15T06:13:11.323Z,-1.75
2018-02-15T06:14:05.990Z,-1.75
2018-02-15T06:15:06.401Z,-1.69
2018-02-15T06:16:06.078Z,-1.69
2018-02-15T06:17:06.331Z,-1.69
2018-02-15T06:18:06.320Z,-1.69
2018-02-15T06:19:06.312Z,-1.69
2018-02-15T06:20:11.347Z,-1.69
2018-02-15T06:21:07.331Z,-1.69
2018-02-15T06:22:06.163Z,-1.69
2018-02-15T06:23:06.160Z,-1.62
2018-02-15T06:24:06.236Z,-1.62
2018-02-15T06:25:06.413Z,-1.62
2018-02-15T06:26:06.429Z,-1.62
2018-02-15T06:27:06.072Z,-1.62
2018-02-15T06:28:05.520Z,-1.62
2018-02-15T06:29:05.677Z,-1.56
2018-02-15T06:30:06.393Z,-1.56
2018-02-15T06:31:06.857Z,-1.56
2018-02-15T06:32:05.711Z,-1.56
2018-02-15T06:33:05.770Z,-1.56
2018-02-15T06:34:06.170Z,-1.56
2018-02-15T06:35:05.851Z,-1.56
2018-02-15T06:36:06.433Z,-1.56
2018-02-15T06:37:06.082Z,-1.56
2018-02-15T06:38:05.918Z,-1.56
2018-02-15T06:39:06.579Z,-1.56
2018-02-15T06:40:06.293Z,-1.56
2018-02-15T06:41:05.687Z,-1.56
2018-02-15T06:42:06.549Z,-1.56
2018-02-15T06:43:06.167Z,-1.50
2018-02-15T06:44:06.329Z,-1.50
2018-02-15T06:45:06.234Z,-1.44
2018-02-15T06:46:05.445Z,-1.44
2018-02-15T06:47:05.850Z,-1.44
2018-02-15T06:48:05.704Z,-1.44
2018-02-15T06:49:05.590Z,-1.44
2018-02-15T06:50:10.539Z,-1.44
2018-02-15T06:51:10.624Z,-1.44
2018-02-15T06:52:06.043Z,-1.44
2018-02-15T06:53:06.099Z,-1.44
2018-02-15T06:54:06.013Z,-1.44
2018-02-15T06:55:06.150Z,-1.44
2018-02-15T06:56:05.763Z,-1.44
2018-02-15T06:57:05.533Z,-1.44
2018-02-15T06:58:05.846Z,-1.44
2018-02-15T06:59:05.679Z,-1.38
2018-02-15T07:00:10.645Z,-1.38
2018-02-15T07:01:05.875Z,-1.38
2018-02-15T07:02:05.927Z,-1.38
2018-02-15T07:03:10.903Z,-1.38
2018-02-15T07:04:05.607Z,-1.38
2018-02-15T07:05:06.396Z,-1.38
2018-02-15T07:06:05.801Z,-1.31
2018-02-15T07:07:06.196Z,-1.31
2018-02-15T07:08:05.995Z,-1.31
2018-02-15T07:09:06.158Z,-1.31
2018-02-15T07:10:06.017Z,-1.25
2018-02-15T07:11:05.680Z,-1.25
2018-02-15T07:12:05.842Z,-1.25
2018-02-15T07:13:05.642Z,-1.25
2018-02-15T07:14:06.358Z,-1.19
2018-02-15T07:15:06.339Z,-1.25
2018-02-15T07:16:05.701Z,-1.19
2018-02-15T07:17:06.219Z,-1.12
2018-02-15T07:18:06.088Z,-1.12
2018-02-15T07:19:06.088Z,-1.12
2018-02-15T07:20:05.849Z,-1.12
2018-02-15T07:21:05.654Z,-1.12
2018-02-15T07:22:05.463Z,-1.12
2018-02-15T07:23:06.499Z,-1.00
2018-02-15T07:24:06.029Z,-0.94
2018-02-15T07:25:06.134Z,-0.94
2018-02-15T07:26:06.038Z,-0.88
2018-02-15T07:27:06.401Z,-0.88
2018-02-15T07:28:07.135Z,-0.81
2018-02-15T07:29:06.395Z,-0.81
2018-02-15T07:30:06.084Z,-0.81
2018-02-15T07:31:10.999Z,-0.81
2018-02-15T07:32:06.480Z,-0.75
2018-02-15T07:33:06.476Z,-0.75
2018-02-15T07:34:06.657Z,-0.69
2018-02-15T07:35:05.762Z,-0.50
2018-02-15T07:36:05.769Z,-0.44
2018-02-15T07:37:05.681Z,-0.38
2018-02-15T07:38:05.930Z,-0.25
2018-02-15T07:39:06.569Z,-0.06
2018-02-15T07:40:05.920Z,-0.06
2018-02-15T07:41:05.620Z,0.00
2018-02-15T07:42:05.531Z,0.00
2018-02-15T07:43:06.104Z,0.06
2018-02-15T07:44:05.684Z,0.12
2018-02-15T07:45:05.918Z,0.25
2018-02-15T07:46:05.758Z,0.31
2018-02-15T07:47:06.161Z,0.38
2018-02-15T07:48:06.312Z,0.38
2018-02-15T07:49:06.174Z,0.44
2018-02-15T07:50:06.084Z,0.50
2018-02-15T07:51:05.752Z,0.50
2018-02-15T07:52:05.695Z,0.56
2018-02-15T07:53:06.394Z,0.62
2018-02-15T07:54:06.204Z,0.62
2018-02-15T07:55:06.888Z,0.62
2018-02-15T07:56:05.754Z,0.69
2018-02-15T07:57:06.239Z,0.75
2018-02-15T07:58:05.920Z,0.75
2018-02-15T07:59:06.018Z,0.62
2018-02-15T08:00:06.240Z,0.56
2018-02-15T08:01:06.312Z,0.50
2018-02-15T08:02:06.408Z,0.44
2018-02-15T08:03:06.483Z,0.38
2018-02-15T08:04:05.681Z,0.31
2018-02-15T08:05:06.482Z,0.31
2018-02-15T08:06:06.166Z,0.25
2018-02-15T08:07:05.818Z,0.25
2018-02-15T08:08:06.172Z,0.19
2018-02-15T08:09:05.681Z,0.19
2018-02-15T08:10:05.601Z,0.19
2018-02-15T08:11:06.517Z,0.19
2018-02-15T08:12:05.760Z,0.19
2018-02-15T08:13:06.242Z,0.19
2018-02-15T08:14:06.154Z,0.19
2018-02-15T08:15:06.769Z,0.19
2018-02-15T08:16:06.395Z,0.31
2018-02-15T08:17:05.528Z,0.38
2018-02-15T08:18:06.479Z,0.38
2018-02-15T08:19:06.334Z,0.38
2018-02-15T08:20:06.050Z,0.38
2018-02-15T08:21:05.678Z,0.38
2018-02-15T08:22:06.217Z,0.38
2018-02-15T08:23:05.998Z,0.44
2018-02-15T08:24:05.995Z,0.38
2018-02-15T08:25:10.697Z,0.38
2018-02-15T08:26:06.407Z,0.38
2018-02-15T08:27:06.155Z,0.38
2018-02-15T08:28:06.160Z,0.44
2018-02-15T08:29:06.247Z,0.44
2018-02-15T08:30:05.753Z,0.44
2018-02-15T08:31:05.596Z,0.44
2018-02-15T08:32:05.897Z,0.44
2018-02-15T08:33:06.738Z,0.44
2018-02-15T08:34:05.604Z,0.50
2018-02-15T08:35:05.656Z,0.50
2018-02-15T08:36:05.928Z,0.50
2018-02-15T08:37:05.610Z,0.50
2018-02-15T08:38:06.154Z,0.50
2018-02-15T08:39:16.271Z,0.50
2018-02-15T08:40:05.841Z,0.56
2018-02-15T08:41:06.479Z,0.56
2018-02-15T08:42:05.936Z,0.56
2018-02-15T08:43:05.870Z,0.56
2018-02-15T08:44:05.674Z,0.62
2018-02-15T08:45:06.242Z,0.62
2018-02-15T08:46:06.402Z,0.62
2018-02-15T08:47:11.521Z,0.62
2018-02-15T08:48:05.548Z,0.62
2018-02-15T08:49:05.752Z,0.62
2018-02-15T08:50:05.930Z,0.62
2018-02-15T08:51:06.387Z,0.69
2018-02-15T08:52:06.778Z,0.69
2018-02-15T08:53:05.694Z,0.69
2018-02-15T08:54:05.468Z,0.69
2018-02-15T08:55:06.038Z,0.75
2018-02-15T08:56:06.327Z,0.75
2018-02-15T08:57:06.334Z,0.75
2018-02-15T08:58:11.234Z,0.75
2018-02-15T08:59:05.859Z,0.75
2018-02-15T09:00:11.487Z,0.75
2018-02-15T09:01:06.094Z,0.81
2018-02-15T09:02:06.319Z,0.81
2018-02-15T09:03:06.394Z,0.81
2018-02-15T09:04:06.241Z,0.81
2018-02-15T09:05:06.160Z,0.88
2018-02-15T09:06:05.435Z,0.88
2018-02-15T09:07:05.767Z,0.88
2018-02-15T09:08:06.412Z,0.94
2018-02-15T09:09:05.606Z,0.94
2018-02-15T09:10:07.231Z,0.94
2018-02-15T09:11:06.237Z,0.94
2018-02-15T09:12:05.843Z,0.94
2018-02-15T09:13:05.915Z,1.00
2018-02-15T09:14:05.593Z,1.00
2018-02-15T09:15:05.595Z,1.06
2018-02-15T09:16:05.518Z,1.00
2018-02-15T09:17:05.731Z,1.00
2018-02-15T09:18:05.759Z,1.06
2018-02-15T09:19:06.645Z,1.06
2018-02-15T09:20:05.922Z,1.06
2018-02-15T09:21:05.754Z,1.12
2018-02-15T09:22:05.761Z,1.12
2018-02-15T09:23:06.250Z,1.12
2018-02-15T09:24:06.069Z,1.12
2018-02-15T09:25:06.244Z,1.12
2018-02-15T09:26:06.243Z,1.19
2018-02-15T09:27:06.270Z,1.12
2018-02-15T09:28:06.416Z,1.12
2018-02-15T09:29:06.232Z,1.12
2018-02-15T09:30:05.804Z,1.12
2018-02-15T09:31:05.515Z,1.19
2018-02-15T09:32:06.019Z,1.19
2018-02-15T09:33:06.416Z,1.19
2018-02-15T09:34:06.265Z,1.19
2018-02-15T09:35:05.770Z,1.25
2018-02-15T09:36:06.479Z,1.25
2018-02-15T09:37:05.529Z,1.31
2018-02-15T09:38:06.240Z,1.31
2018-02-15T09:39:06.329Z,1.31
2018-02-15T09:40:10.769Z,1.31
2018-02-15T09:41:06.172Z,1.38
2018-02-15T09:42:06.010Z,1.38
2018-02-15T09:43:06.493Z,1.38
2018-02-15T09:44:11.262Z,1.44
2018-02-15T09:45:05.836Z,1.44
2018-02-15T09:46:05.700Z,1.44
2018-02-15T09:47:05.972Z,1.50
2018-02-15T09:48:06.565Z,1.50
2018-02-15T09:49:06.323Z,1.50
2018-02-15T09:50:06.247Z,1.56
2018-02-15T09:51:06.392Z,1.56
2018-02-15T09:52:05.753Z,1.56
2018-02-15T09:53:06.238Z,1.62
2018-02-15T09:54:11.341Z,1.62
2018-02-15T09:55:05.936Z,1.62
2018-02-15T09:56:05.889Z,1.62
2018-02-15T09:57:06.027Z,1.69
2018-02-15T09:58:06.263Z,1.69
2018-02-15T09:59:10.837Z,1.75
2018-02-15T10:00:06.245Z,1.75
2018-02-15T10:01:05.912Z,1.75
2018-02-15T10:02:05.788Z,1.75
2018-02-15T10:03:06.377Z,1.81
2018-02-15T10:04:05.914Z,1.81
2018-02-15T10:05:05.931Z,1.88
2018-02-15T10:06:06.006Z,1.88
2018-02-15T10:07:06.315Z,1.88
2018-02-15T10:08:06.260Z,1.88
2018-02-15T10:09:06.006Z,1.88
2018-02-15T10:10:10.998Z,1.88
2018-02-15T10:11:05.940Z,1.88
2018-02-15T10:12:05.858Z,1.94
2018-02-15T10:13:05.808Z,1.94
2018-02-15T10:14:05.591Z,1.94
2018-02-15T10:15:05.870Z,1.94
2018-02-15T10:16:06.245Z,1.94
2018-02-15T10:17:06.166Z,1.94
2018-02-15T10:18:10.842Z,2.00
2018-02-15T10:19:06.093Z,2.00
2018-02-15T10:20:06.251Z,2.00
2018-02-15T10:21:05.599Z,2.00
2018-02-15T10:22:05.681Z,2.00
2018-02-15T10:23:05.919Z,2.06
2018-02-15T10:24:06.087Z,2.06
2018-02-15T10:25:10.648Z,2.06
2018-02-15T10:26:06.164Z,2.12
2018-02-15T10:27:05.543Z,2.12
2018-02-15T10:28:05.821Z,2.12
2018-02-15T10:29:05.442Z,2.19
2018-02-15T10:30:05.599Z,2.19
2018-02-15T10:31:05.844Z,2.19
2018-02-15T10:32:06.476Z,2.19
2018-02-15T10:33:06.171Z,2.25
2018-02-15T10:34:05.938Z,2.25
2018-02-15T10:35:06.575Z,2.25
2018-02-15T10:36:05.951Z,2.31
2018-02-15T10:37:05.728Z,2.31
2018-02-15T10:38:06.327Z,2.31
2018-02-15T10:39:05.763Z,2.38
2018-02-15T10:40:05.776Z,2.38
2018-02-15T10:41:05.516Z,2.38
2018-02-15T10:42:05.679Z,2.38
2018-02-15T10:43:06.245Z,2.44
2018-02-15T10:44:05.723Z,2.44
2018-02-15T10:45:05.922Z,2.44
2018-02-15T10:46:06.477Z,2.44
2018-02-15T10:47:06.077Z,2.50
2018-02-15T10:48:06.477Z,2.50
2018-02-15T10:49:05.625Z,2.50
2018-02-15T10:50:05.955Z,2.56
2018-02-15T10:51:06.251Z,2.56
2018-02-15T10:52:06.006Z,2.56
2018-02-15T10:53:06.258Z,2.62
2018-02-15T10:54:06.160Z,2.62
2018-02-15T10:55:10.890Z,2.69
2018-02-15T10:56:05.922Z,2.69
2018-02-15T10:57:12.122Z,2.69
2018-02-15T10:58:05.703Z,2.69
2018-02-15T10:59:05.714Z,2.75
2018-02-15T11:00:05.751Z,2.75
2018-02-15T11:01:05.685Z,2.81
2018-02-15T11:02:06.161Z,2.81
2018-02-15T11:03:05.578Z,2.81
2018-02-15T11:04:05.924Z,2.81
2018-02-15T11:05:06.317Z,2.81
2018-02-15T11:06:06.158Z,2.88
2018-02-15T11:07:06.334Z,2.88
2018-02-15T11:08:06.163Z,2.88
2018-02-15T11:09:05.691Z,2.88
2018-02-15T11:10:05.630Z,2.94
2018-02-15T11:11:05.768Z,2.94
2018-02-15T11:12:06.034Z,2.94
2018-02-15T11:13:06.004Z,2.94
2018-02-15T11:14:05.925Z,3.00
2018-02-15T11:15:06.033Z,3.00
2018-02-15T11:16:05.988Z,3.00
2018-02-15T11:17:06.325Z,3.00
2018-02-15T11:18:05.928Z,3.06
2018-02-15T11:19:11.440Z,3.06
2018-02-15T11:20:06.103Z,3.06
2018-02-15T11:21:05.914Z,3.12
2018-02-15T11:22:06.323Z,3.12
2018-02-15T11:23:06.403Z,3.12
2018-02-15T11:24:05.679Z,3.12
2018-02-15T11:25:06.014Z,3.12
2018-02-15T11:26:05.763Z,3.19
2018-02-15T11:27:11.402Z,3.19
2018-02-15T11:28:06.079Z,3.12
2018-02-15T11:29:05.768Z,3.19
2018-02-15T11:30:05.765Z,3.19
2018-02-15T11:31:06.408Z,3.19
2018-02-15T11:32:05.521Z,3.19
2018-02-15T11:33:06.313Z,3.19
2018-02-15T11:34:06.322Z,3.25
2018-02-15T11:35:06.240Z,3.19
2018-02-15T11:36:05.839Z,3.19
2018-02-15T11:37:05.525Z,3.19
2018-02-15T11:38:11.517Z,3.19
2018-02-15T11:39:05.678Z,3.19
2018-02-15T11:40:06.078Z,3.25
2018-02-15T11:41:05.926Z,3.25
2018-02-15T11:42:05.997Z,3.25
2018-02-15T11:43:05.931Z,3.19
2018-02-15T11:44:06.250Z,3.19
2018-02-15T11:45:05.922Z,3.19
2018-02-15T11:46:05.648Z,3.19
2018-02-15T11:47:05.600Z,3.19
2018-02-15T11:48:06.550Z,3.19
2018-02-15T11:49:06.330Z,3.12
2018-02-15T11:50:06.472Z,3.12
2018-02-15T11:51:05.923Z,3.12
2018-02-15T11:52:05.513Z,3.06
2018-02-15T11:53:06.470Z,3.12
2018-02-15T11:54:06.250Z,3.06
2018-02-15T11:55:06.404Z,3.06
2018-02-15T11:56:06.000Z,3.06
2018-02-15T11:57:05.715Z,3.06
2018-02-15T11:58:06.017Z,3.06
2018-02-15T11:59:06.396Z,3.06
2018-02-15T12:00:06.078Z,3.06
2018-02-15T12:01:06.084Z,3.06
2018-02-15T12:02:05.759Z,3.06
2018-02-15T12:03:05.854Z,3.06
2018-02-15T12:04:05.776Z,3.12
2018-02-15T12:05:11.422Z,3.12
2018-02-15T12:06:05.850Z,3.06
2018-02-15T12:07:06.087Z,3.06
2018-02-15T12:08:05.977Z,3.12
2018-02-15T12:09:05.679Z,3.12
2018-02-15T12:10:05.593Z,3.12
2018-02-15T12:11:06.411Z,3.12
2018-02-15T12:12:06.129Z,3.06
2018-02-15T12:13:06.231Z,3.06
2018-02-15T12:14:05.672Z,3.12
2018-02-15T12:15:05.706Z,3.12
2018-02-15T12:16:05.943Z,3.12
2018-02-15T12:17:06.344Z,3.12
2018-02-15T12:18:05.500Z,3.12
2018-02-15T12:19:06.167Z,3.12
2018-02-15T12:20:06.080Z,3.12
2018-02-15T12:21:05.688Z,3.12
2018-02-15T12:22:06.079Z,3.19
2018-02-15T12:23:05.934Z,3.19
2018-02-15T12:24:06.242Z,3.19
2018-02-15T12:25:05.940Z,3.19
2018-02-15T12:26:05.999Z,3.19
2018-02-15T12:27:10.754Z,3.25
2018-02-15T12:28:06.006Z,3.25
2018-02-15T12:29:06.649Z,3.25
2018-02-15T12:30:05.711Z,3.25
2018-02-15T12:31:06.326Z,3.25
2018-02-15T12:32:05.678Z,3.25
2018-02-15T12:33:06.088Z,3.25
2018-02-15T12:34:05.707Z,3.31
2018-02-15T12:35:06.564Z,3.31
2018-02-15T12:36:06.174Z,3.31
2018-02-15T12:37:05.825Z,3.31
2018-02-15T12:38:05.598Z,3.31
2018-02-15T12:39:05.608Z,3.31
2018-02-15T12:40:06.139Z,3.31
2018-02-15T12:41:06.071Z,3.38
2018-02-15T12:42:06.008Z,3.38
2018-02-15T12:43:05.834Z,3.38
2018-02-15T12:44:06.403Z,3.38
2018-02-15T12:45:06.339Z,3.38
2018-02-15T12:46:06.245Z,3.38
2018-02-15T12:47:05.931Z,3.38
2018-02-15T12:48:06.093Z,3.44
2018-02-15T12:49:06.250Z,3.44
2018-02-15T12:50:11.258Z,3.44
2018-02-15T12:51:05.872Z,3.44
2018-02-15T12:52:06.000Z,3.44
2018-02-15T12:53:06.566Z,3.44
2018-02-15T12:54:06.157Z,3.50
2018-02-15T12:55:06.242Z,3.44
2018-02-15T12:56:06.454Z,3.50
2018-02-15T12:57:10.982Z,3.50
2018-02-15T12:58:06.489Z,3.50
2018-02-15T12:59:06.058Z,3.50
2018-02-15T13:00:05.709Z,3.50
2018-02-15T13:01:05.697Z,3.50
2018-02-15T13:02:06.195Z,3.50
2018-02-15T13:03:06.018Z,3.50